Time;durP1;ratioP1;P1;durP2;ratioP2;P2;SDS_P1;SDS_P2;PMS_P1;PMS_P2;Temp;Humidity;BMP_temperature;BMP_pressure;BME280_temperature;BME280_humidity;BME280_pressure;Samples;Min_cycle;Max_cycle;Signal;HPM_P1;HPM_P2
2021/08/18 00:00:35;;;;;;;7.20;2.20;;;;;;;-142.75;77.80;76843.91;5024321;28;19914;-84
2021/08/18 00:03:01;;;;;;;;;;;;;;;-142.75;77.64;76839.97;5003185;28;20037;-81
2021/08/18 00:05:26;;;;;;;10.38;2.40;;;;;;;-142.75;77.66;76845.88;5029073;28;19921;-84
2021/08/18 00:07:51;;;;;;;;;;;;;;;-142.75;77.74;76834.06;5060863;28;20031;-83
2021/08/18 00:10:17;;;;;;;7.75;2.10;;;;;;;-142.75;77.56;76832.09;4996194;28;20353;-83
2021/08/18 00:12:42;;;;;;;;;;;;;;;-142.75;77.49;76832.09;5056054;28;20041;-83
2021/08/18 00:15:09;;;;;;;10.27;2.33;;;;;;;-142.75;77.35;76830.13;5044109;28;20048;-82
2021/08/18 00:17:35;;;;;;;9.05;2.70;;;;;;;-142.75;77.36;76826.19;5003982;28;20053;-83
2021/08/18 00:20:00;;;;;;;;;;;;;;;-142.75;77.07;76820.28;5043746;28;20033;-84
2021/08/18 00:22:25;;;;;;;11.07;2.15;;;;;;;-142.75;77.05;76814.38;4992887;28;19920;-80
2021/08/18 00:24:50;;;;;;;;;;;;;;;-142.75;76.93;76826.19;5011595;28;20372;-80
2021/08/18 00:27:15;;;;;;;7.15;2.50;;;;;;;-142.75;77.01;76826.19;5044040;28;19913;-80
2021/08/18 00:29:41;;;;;;;;;;;;;;;-142.75;76.42;76792.75;4991697;28;20026;-80
2021/08/18 00:32:08;;;;;;;6.78;2.53;;;;;;;-142.75;76.78;76818.31;5057459;28;19917;-80
2021/08/18 00:34:34;;;;;;;5.00;2.30;;;;;;;-142.75;76.95;76820.28;5041983;28;20029;-82
2021/08/18 00:36:59;;;;;;;;;;;;;;;-142.75;77.01;76806.50;4993652;28;20041;-80
2021/08/18 00:39:24;;;;;;;4.35;1.92;;;;;;;-142.75;77.09;76820.28;5010116;28;19913;-80
2021/08/18 00:41:50;;;;;;;;;;;;;;;-142.75;77.20;76816.34;5011069;28;20583;-81
2021/08/18 00:44:15;;;;;;;7.25;2.20;;;;;;;-142.75;77.40;76820.28;4992226;28;19914;-82
2021/08/18 00:46:46;;;;;;;;;;;;;;;-142.75;77.40;76820.28;5009412;28;20499;-80
2021/08/18 00:49:12;;;;;;;8.75;2.05;;;;;;;-142.75;77.60;76818.31;4993576;28;19917;-82
2021/08/18 00:51:37;;;;;;;;;;;;;;;-142.75;77.45;76816.34;4998228;28;20427;-82
2021/08/18 00:54:02;;;;;;;5.57;2.55;;;;;;;-142.75;77.40;76816.34;5011068;28;19992;-80
2021/08/18 00:56:27;;;;;;;;;;;;;;;-142.75;77.45;76810.44;5020772;28;20492;-83
2021/08/18 00:58:52;;;;;;;7.38;2.20;;;;;;;-142.75;77.49;76814.38;5000803;28;19922;-81
2021/08/18 01:01:18;;;;;;;;;;;;;;;-142.75;77.39;76818.31;5057503;28;20033;-80
2021/08/18 01:03:43;;;;;;;5.45;1.70;;;;;;;-142.75;77.35;76822.25;4991953;28;19921;-82
2021/08/18 01:06:08;;;;;;;;;;;;;;;-142.75;77.28;76822.25;5007092;28;20458;-81
2021/08/18 01:08:35;;;;;;;12.68;2.53;;;;;;;-142.75;77.17;76822.25;5059432;28;20004;-81
2021/08/18 01:11:00;;;;;;;5.15;2.00;;;;;;;-142.75;77.21;76826.19;5073008;28;20034;-81
2021/08/18 01:13:26;;;;;;;;;;;;;;;-142.75;77.29;76828.16;4993729;28;20532;-83
2021/08/18 01:15:51;;;;;;;6.68;1.67;;;;;;;-142.75;77.17;76830.13;5009403;28;19914;-81
2021/08/18 01:18:16;;;;;;;;;;;;;;;-142.75;77.27;76826.19;4991229;28;20435;-83
2021/08/18 01:20:43;;;;;;;6.72;2.08;;;;;;;-142.75;77.38;76834.06;5055590;28;19913;-82
2021/08/18 01:23:12;;;;;;;4.15;1.70;;;;;;;-142.75;77.25;76834.06;5003624;28;20029;-83
2021/08/18 01:25:39;;;;;;;4.72;1.80;;;;;;;-142.75;77.21;76826.19;5021914;28;20553;-80
2021/08/18 01:28:07;;;;;;;5.20;1.60;;;;;;;-142.75;77.28;76830.13;5003090;28;20109;-81
2021/08/18 01:30:33;;;;;;;4.22;1.60;;;;;;;-142.75;76.97;76808.50;5006936;28;20055;-81
2021/08/18 01:33:11;;;;;;;7.05;1.75;;;;;;;-142.75;76.52;76792.75;4991443;28;20412;-82
2021/08/18 01:35:45;;;;;;;8.65;1.55;;;;;;;-142.75;76.55;76802.56;5005049;28;20029;-80
2021/08/18 01:38:12;;;;;;;5.15;1.75;;;;;;;-142.75;76.48;76802.56;5010310;28;20529;-80
2021/08/18 01:40:40;;;;;;;4.95;1.58;;;;;;;-142.75;76.49;76802.56;5005270;28;20018;-85
2021/08/18 01:43:06;;;;;;;5.82;1.73;;;;;;;-142.75;76.49;76800.63;5006968;28;20037;-81
2021/08/18 01:45:33;;;;;;;;;;;;;;;-142.75;76.55;76792.75;5010398;28;20022;-82
2021/08/18 01:48:05;;;;;;;8.50;1.77;;;;;;;-142.75;76.65;76804.53;5006686;28;20281;-81
2021/08/18 01:50:31;;;;;;;7.07;1.58;;;;;;;-142.75;76.82;76814.38;4993133;28;20026;-83
2021/08/18 01:52:56;;;;;;;;;;;;;;;-142.75;76.86;76810.44;4992470;28;20030;-83
2021/08/18 01:55:25;;;;;;;3.17;1.65;;;;;;;-142.75;76.98;76806.50;5005274;28;19992;-81
2021/08/18 01:57:52;;;;;;;8.45;1.77;;;;;;;-142.75;77.31;76818.31;4991757;28;20441;-83
2021/08/18 02:00:17;;;;;;;3.55;1.40;;;;;;;-142.75;77.54;76826.19;5020581;28;20026;-81
2021/08/18 02:02:43;;;;;;;;;;;;;;;-142.75;77.65;76822.25;5002785;28;20023;-82
2021/08/18 02:05:09;;;;;;;8.80;1.55;;;;;;;-142.75;77.61;76818.31;5059729;28;20360;-84
2021/08/18 02:07:35;;;;;;;5.00;1.50;;;;;;;-142.75;77.74;76820.28;4996683;28;20163;-82
2021/08/18 02:10:00;;;;;;;;;;;;;;;-142.75;77.60;76814.38;5050227;28;20060;-83
2021/08/18 02:12:25;;;;;;;6.45;1.52;;;;;;;-142.75;77.47;76812.41;4992134;28;20375;-83
2021/08/18 02:14:50;;;;;;;;;;;;;;;-142.75;77.19;76806.50;4993659;28;20022;-84
2021/08/18 02:17:16;;;;;;;5.70;1.60;;;;;;;-142.75;77.06;76810.44;5004150;28;19913;-84
2021/08/18 02:19:41;;;;;;;;;;;;;;;-142.75;76.97;76810.44;5076530;28;20054;-82
2021/08/18 02:22:06;;;;;;;4.05;1.30;;;;;;;-142.75;76.92;76808.50;5052528;28;19914;-83
2021/08/18 02:24:31;;;;;;;;;;;;;;;-142.75;76.79;76802.56;5058354;28;20113;-84
2021/08/18 02:26:57;;;;;;;3.22;1.55;;;;;;;-142.75;76.52;76794.69;4998394;28;19939;-84
2021/08/18 02:29:22;;;;;;;;;;;;;;;-142.75;76.28;76782.91;4992731;28;20026;-83
2021/08/18 02:31:47;;;;;;;5.60;1.42;;;;;;;-142.75;76.03;76788.81;4991564;28;19917;-84
2021/08/18 02:34:12;;;;;;;;;;;;;;;-142.75;75.90;76782.91;5032236;28;20068;-84
2021/08/18 02:36:39;;;;;;;4.53;1.70;;;;;;;-142.75;75.83;76788.81;4994659;28;19922;-81
2021/08/18 02:39:05;;;;;;;3.72;1.38;;;;;;;-142.75;75.81;76782.91;5060522;28;20026;-82
2021/08/18 02:41:30;;;;;;;7.65;1.52;;;;;;;-142.75;75.66;76784.88;5002423;28;20018;-84
2021/08/18 02:43:55;;;;;;;;;;;;;;;-142.75;75.73;76790.78;5020918;28;20165;-81
2021/08/18 02:46:21;;;;;;;7.93;1.73;;;;;;;-142.75;76.05;76806.50;5035051;28;19913;-82
2021/08/18 02:48:46;;;;;;;;;;;;;;;-142.75;76.39;76806.50;5037418;28;20033;-83
2021/08/18 02:51:11;;;;;;;6.15;1.70;;;;;;;-142.75;76.36;76798.66;5008445;28;19924;-83
2021/08/18 02:53:36;;;;;;;;;;;;;;;-142.75;76.25;76794.69;4997049;28;20033;-83
2021/08/18 02:56:02;;;;;;;8.15;1.50;;;;;;;-142.75;76.14;76798.66;4998802;28;19913;-83
2021/08/18 02:58:27;;;;;;;;;;;;;;;-142.75;76.37;76804.53;5023253;28;20498;-82
2021/08/18 03:00:52;;;;;;;6.72;1.90;;;;;;;-142.75;76.60;76806.50;5038121;28;19981;-83
2021/08/18 03:03:17;;;;;;;;;;;;;;;-142.75;76.49;76790.78;5050913;28;20028;-83
2021/08/18 03:05:43;;;;;;;4.15;1.60;;;;;;;-142.75;76.44;76796.69;5059036;28;20012;-83
2021/08/18 03:08:08;;;;;;;;;;;;;;;-142.75;76.36;76798.66;5022567;28;20115;-83
2021/08/18 03:10:33;;;;;;;4.30;1.48;;;;;;;-142.75;76.59;76802.56;5060805;28;20402;-82
2021/08/18 03:12:59;;;;;;;;;;;;;;;-142.75;76.43;76796.69;5010537;28;20114;-80
2021/08/18 03:15:24;;;;;;;9.93;1.90;;;;;;;-142.75;76.55;76806.50;4997900;28;19914;-82
2021/08/18 03:17:49;;;;;;;;;;;;;;;-142.75;76.71;76802.56;5007267;28;20406;-82
2021/08/18 03:20:15;;;;;;;6.07;1.80;;;;;;;-142.75;76.80;76810.44;5004161;28;19959;-81
2021/08/18 03:22:40;;;;;;;;;;;;;;;-142.75;76.95;76804.53;5000558;28;20500;-83
2021/08/18 03:25:06;;;;;;;8.35;2.20;;;;;;;-142.75;77.03;76804.53;4995300;28;19913;-81
2021/08/18 03:27:32;;;;;;;9.07;1.90;;;;;;;-142.75;77.25;76818.31;5006354;28;20101;-83
2021/08/18 03:29:57;;;;;;;;;;;;;;;-142.75;77.27;76800.63;5039188;28;20055;-83
2021/08/18 03:32:22;;;;;;;7.97;1.75;;;;;;;-142.75;77.10;76802.56;5044257;28;19918;-82
2021/08/18 03:34:47;;;;;;;;;;;;;;;-142.75;77.11;76802.56;5000461;28;20676;-82
2021/08/18 03:37:13;;;;;;;4.90;1.60;;;;;;;-142.75;77.04;76800.63;5004153;28;19913;-83
2021/08/18 03:39:38;;;;;;;;;;;;;;;-142.75;77.04;76794.69;5003406;28;20113;-81
2021/08/18 03:42:04;;;;;;;5.80;1.90;;;;;;;-142.75;76.97;76802.56;5010005;28;20383;-80
2021/08/18 03:44:29;;;;;;;;;;;;;;;-142.75;77.20;76802.56;4997897;28;20113;-83
2021/08/18 03:46:54;;;;;;;6.43;1.60;;;;;;;-142.75;77.25;76802.56;5028281;28;19917;-82
2021/08/18 03:49:19;;;;;;;;;;;;;;;-142.75;77.06;76792.75;4999558;28;20506;-83
2021/08/18 03:51:45;;;;;;;5.38;1.88;;;;;;;-142.75;76.86;76796.69;4996611;28;19918;-81
2021/08/18 03:54:10;;;;;;;;;;;;;;;-142.75;77.00;76790.78;5014980;22;20055;-81
2021/08/18 03:56:35;;;;;;;7.72;1.85;;;;;;;-142.75;77.08;76798.66;4977794;28;19918;-82
2021/08/18 03:59:00;;;;;;;;;;;;;;;-142.75;77.13;76794.69;5039211;28;20034;-81
2021/08/18 04:01:26;;;;;;;7.55;1.60;;;;;;;-142.75;76.98;76794.69;5022724;28;20000;-80
2021/08/18 04:03:51;;;;;;;;;;;;;;;-142.75;77.21;76794.69;4980052;28;20476;-83
2021/08/18 04:06:16;;;;;;;5.05;1.80;;;;;;;-142.75;77.40;76806.50;4979454;28;19914;-81
2021/08/18 04:08:41;;;;;;;;;;;;;;;-142.75;77.50;76798.66;4978466;28;20114;-82
2021/08/18 04:11:09;;;;;;;4.90;1.67;;;;;;;-142.75;77.53;76802.56;5042945;28;19929;-79
2021/08/18 04:13:35;;;;;;;5.72;1.88;;;;;;;-142.75;77.80;76808.50;5045707;28;20083;-80
2021/08/18 04:16:00;;;;;;;;;;;;;;;-142.75;77.79;76810.44;4975610;28;20091;-81
2021/08/18 04:18:25;;;;;;;7.60;1.90;;;;;;;-142.75;77.67;76810.44;5049390;28;20371;-80
2021/08/18 04:20:51;;;;;;;;;;;;;;;-142.75;77.67;76802.56;4977727;28;20038;-82
2021/08/18 04:23:16;;;;;;;7.65;1.92;;;;;;;-142.75;77.68;76804.53;5043147;28;19914;-83
2021/08/18 04:25:41;;;;;;;;;;;;;;;-142.75;77.61;76798.66;4976747;28;20524;-82
2021/08/18 04:28:06;;;;;;;9.20;2.00;;;;;;;-142.75;77.51;76802.56;5039157;28;19920;-81
2021/08/18 04:30:32;;;;;;;;;;;;;;;-142.75;77.49;76796.69;5041750;28;20172;-81
2021/08/18 04:32:57;;;;;;;7.10;1.70;;;;;;;-142.75;77.56;76800.63;4983045;28;19936;-81
2021/08/18 04:35:22;;;;;;;;;;;;;;;-142.75;77.57;76794.69;5041951;28;20072;-82
2021/08/18 04:37:48;;;;;;;5.40;1.88;;;;;;;-142.75;77.71;76806.50;5042909;28;19913;-80
2021/08/18 04:40:14;;;;;;;;;;;;;;;-142.75;77.75;76800.63;5039085;28;20427;-81
2021/08/18 04:42:42;;;;;;;6.50;1.70;;;;;;;-142.75;78.09;76802.56;4982462;28;20375;-82
2021/08/18 04:45:10;;;;;;;5.43;1.83;;;;;;;-142.75;78.01;76798.66;5066236;28;20083;-81
2021/08/18 04:47:35;;;;;;;4.97;1.80;;;;;;;-142.75;77.92;76794.69;4972481;28;20026;-81
2021/08/18 04:50:01;;;;;;;;;;;;;;;-142.75;77.94;76782.91;5045137;28;22209;-80
2021/08/18 04:52:26;;;;;;;6.03;2.42;;;;;;;-142.75;77.92;76790.78;5040648;28;19914;-81
2021/08/18 04:54:52;;;;;;;;;;;;;;;-142.75;78.03;76792.75;4976822;28;20034;-82
2021/08/18 04:57:17;;;;;;;7.38;2.28;;;;;;;-142.75;78.15;76792.75;5044878;28;19979;-81
2021/08/18 04:59:42;;;;;;;;;;;;;;;-142.75;78.04;76784.88;5044911;28;20037;-81
2021/08/18 05:02:07;;;;;;;3.30;2.10;;;;;;;-142.75;77.95;76778.97;4975691;28;19953;-81
2021/08/18 05:04:33;;;;;;;;;;;;;;;-142.75;77.54;76771.09;5059895;28;20111;-81
2021/08/18 05:06:58;;;;;;;7.60;1.65;;;;;;;-142.75;77.31;76767.16;4980510;28;19935;-81
2021/08/18 05:09:23;;;;;;;;;;;;;;;-142.75;77.17;76763.22;5045230;28;20030;-81
2021/08/18 05:11:48;;;;;;;5.05;2.33;;;;;;;-142.75;77.01;76759.28;5062490;28;19929;-81
2021/08/18 05:14:14;;;;;;;;;;;;;;;-142.75;77.14;76755.34;5045160;28;20067;-82
2021/08/18 05:16:39;;;;;;;6.07;2.40;;;;;;;-142.75;77.20;76755.34;4978503;28;20279;-81
2021/08/18 05:19:04;;;;;;;;;;;;;;;-142.75;77.12;76753.38;5040310;28;20420;-82
2021/08/18 05:21:29;;;;;;;5.57;2.50;;;;;;;-142.75;77.41;76757.31;5039504;28;19918;-81
2021/08/18 05:23:55;;;;;;;;;;;;;;;-142.75;77.62;76751.41;5041137;28;20034;-83
2021/08/18 05:26:20;;;;;;;6.82;2.28;;;;;;;-142.75;77.79;76755.34;5040779;28;19918;-81
2021/08/18 05:28:45;;;;;;;;;;;;;;;-142.75;77.95;76747.47;4972838;28;20038;-82
2021/08/18 05:31:11;;;;;;;7.18;2.63;;;;;;;-142.75;78.02;76735.66;5044836;28;20371;-80
2021/08/18 05:33:36;;;;;;;;;;;;;;;-142.75;77.95;76733.69;5046084;28;20034;-83
2021/08/18 05:36:03;;;;;;;6.13;2.85;;;;;;;-142.75;78.04;76733.69;4979083;28;19920;-82
2021/08/18 05:38:28;;;;;;;8.35;3.03;;;;;;;-142.75;78.11;76737.63;4976728;28;20037;-79
2021/08/18 05:40:54;;;;;;;4.57;2.72;;;;;;;-142.75;78.17;76737.63;5039942;28;20031;-81
2021/08/18 05:43:19;;;;;;;;;;;;;;;-142.75;78.29;76731.72;5039911;28;20039;-82
2021/08/18 05:45:44;;;;;;;9.18;2.97;;;;;;;-142.75;78.29;76729.75;5043713;28;19914;-81
2021/08/18 05:48:09;;;;;;;;;;;;;;;-142.75;78.35;76727.78;4982495;28;20038;-80
2021/08/18 05:50:34;;;;;;;6.40;3.05;;;;;;;-142.75;78.50;76721.88;4977570;28;19913;-83
2021/08/18 05:53:00;;;;;;;;;;;;;;;-142.75;78.29;76727.78;4977593;28;20393;-82
2021/08/18 05:55:25;;;;;;;8.90;3.15;;;;;;;-142.75;78.33;76715.97;4973914;28;19924;-82
2021/08/18 05:57:51;;;;;;;;;;;;;;;-142.75;78.24;76715.97;5046427;28;20023;-82
2021/08/18 06:00:16;;;;;;;8.88;3.00;;;;;;;-142.75;78.32;76717.94;4974368;28;20381;-81
2021/08/18 06:02:42;;;;;;;;;;;;;;;-142.75;78.18;76692.34;4980072;28;20030;-81
2021/08/18 06:05:08;;;;;;;7.18;2.60;;;;;;;-142.75;78.05;76704.16;4978018;28;19922;-82
2021/08/18 06:07:33;;;;;;;7.30;3.10;;;;;;;-142.75;78.13;76712.03;5044939;28;20034;-82
2021/08/18 06:09:58;;;;;;;;;;;;;;;-142.75;78.17;76708.09;4978139;28;20031;-81
2021/08/18 06:12:23;;;;;;;8.07;3.35;;;;;;;-142.75;78.23;76712.03;4978341;28;19914;-82
2021/08/18 06:14:49;;;;;;;8.77;3.45;;;;;;;-142.75;78.30;76708.09;5039979;28;20128;-82
2021/08/18 06:17:14;;;;;;;;;;;;;;;-142.75;78.19;76704.16;5068403;28;20034;-81
2021/08/18 06:19:39;;;;;;;7.20;3.25;;;;;;;-142.75;78.20;76700.22;5045278;28;19920;-80
2021/08/18 06:22:04;;;;;;;;;;;;;;;-142.75;78.07;76700.22;5055695;28;20025;-82
2021/08/18 06:24:40;;;;;;;7.40;3.50;;;;;;;-142.75;78.11;76694.31;5039824;28;19921;-81
2021/08/18 06:27:06;;;;;;;7.33;3.57;;;;;;;-142.75;78.02;76694.31;4982353;28;20034;-83
2021/08/18 06:29:34;;;;;;;8.73;4.20;;;;;;;-142.75;78.00;76696.28;5044894;28;20498;-82
2021/08/18 06:31:59;;;;;;;11.23;3.85;;;;;;;-142.75;77.95;76690.38;4976179;28;20018;-80
2021/08/18 06:34:25;;;;;;;7.82;4.32;;;;;;;-142.75;77.61;76690.38;5043647;28;20083;-81
2021/08/18 06:36:50;;;;;;;10.50;4.32;;;;;;;-142.75;77.38;76676.59;4977222;28;20031;-84
2021/08/18 06:39:15;;;;;;;;;;;;;;;-142.75;77.32;76670.69;4981216;28;20110;-82
2021/08/18 06:41:40;;;;;;;6.25;4.10;;;;;;;-142.75;77.19;76668.72;5043739;28;20294;-80
2021/08/18 06:44:06;;;;;;;;;;;;;;;-142.75;76.92;76652.97;5049982;28;20034;-82
2021/08/18 06:46:31;;;;;;;7.97;4.15;;;;;;;-142.75;76.70;76654.94;5047685;28;19921;-81
2021/08/18 06:48:56;;;;;;;;;;;;;;;-142.75;76.50;76637.22;5058912;28;20483;-82
2021/08/18 06:51:21;;;;;;;10.88;4.38;;;;;;;-142.75;76.07;76625.41;4985950;28;19914;-81
2021/08/18 06:53:46;;;;;;;;;;;;;;;-142.75;75.47;76611.63;5051545;28;20034;-82
2021/08/18 06:56:12;;;;;;;9.88;4.85;;;;;;;-142.75;75.50;76625.41;5048483;28;19962;-81
2021/08/18 06:58:37;;;;;;;;;;;;;;;-142.75;75.67;76627.38;5042589;28;20076;-82
2021/08/18 07:01:04;;;;;;;8.80;4.57;;;;;;;-142.75;75.79;76637.22;4981430;28;19914;-79
2021/08/18 07:03:29;;;;;;;7.88;4.53;;;;;;;-142.75;75.77;76631.31;4987022;28;20056;-81
2021/08/18 07:05:54;;;;;;;6.10;4.18;;;;;;;-142.75;75.50;76625.41;4972037;28;20039;-79
2021/08/18 07:08:19;;;;;;;;;;;;;;;-142.75;75.51;76613.59;5045805;28;20022;-81
2021/08/18 07:10:45;;;;;;;5.43;4.60;;;;;;;-142.75;75.62;76601.78;5048497;28;20371;-81
2021/08/18 07:13:10;;;;;;;;;;;;;;;-142.75;75.59;76597.84;5059039;28;20447;-81
2021/08/18 07:15:35;;;;;;;8.43;5.03;;;;;;;-142.75;75.29;76593.91;5037545;28;19918;-81
2021/08/18 07:18:02;;;;;;;;;;;;;;;-142.75;74.55;76578.16;5046534;28;20080;-81
2021/08/18 07:20:27;;;;;;;8.68;4.45;;;;;;;-142.75;74.29;76576.19;5055641;28;19964;-80
2021/08/18 07:22:53;;;;;;;;;;;;;;;-142.75;74.02;76574.22;5043158;28;20050;-79
2021/08/18 07:25:18;;;;;;;17.17;5.30;;;;;;;-142.75;73.92;76570.28;5046847;28;19921;-80
2021/08/18 07:27:43;;;;;;;;;;;;;;;-142.75;73.75;76562.41;4978640;28;20120;-81
2021/08/18 07:30:09;;;;;;;6.43;4.43;;;;;;;-142.75;73.57;76560.44;4982432;28;19914;-82
2021/08/18 07:32:35;;;;;;;8.27;4.75;;;;;;;-142.75;73.32;76554.53;4987987;28;20594;-80
2021/08/18 07:35:00;;;;;;;;;;;;;;;-142.75;73.29;76544.69;5046312;28;20496;-80
2021/08/18 07:37:27;;;;;;;8.65;5.03;;;;;;;-142.75;72.99;76534.84;5041824;28;19936;-80
2021/08/18 07:39:54;;;;;;;6.25;4.50;;;;;;;-142.75;72.90;76527.00;5062802;28;20483;-80
2021/08/18 07:42:20;;;;;;;6.03;4.88;;;;;;;-142.75;72.67;76509.28;5037840;28;20034;-82
2021/08/18 07:44:45;;;;;;;8.77;4.43;;;;;;;-142.75;71.98;76495.50;5047107;28;20030;-82
2021/08/18 07:47:10;;;;;;;7.05;4.68;;;;;;;-142.75;71.59;76475.81;4974271;28;20031;-81
2021/08/18 07:49:36;;;;;;;;;;;;;;;-142.75;71.29;76444.31;5046181;28;20604;-80
2021/08/18 07:52:01;;;;;;;7.55;4.65;;;;;;;-142.75;70.27;76430.53;4970601;28;19922;-80
2021/08/18 07:54:26;;;;;;;8.02;4.75;;;;;;;-142.75;69.88;76430.53;4979426;28;20034;-79
2021/08/18 07:56:52;;;;;;;7.22;4.82;;;;;;;-142.75;69.30;76420.69;4983382;28;20102;-80
2021/08/18 07:59:17;;;;;;;5.45;4.05;;;;;;;-142.75;69.78;76402.97;5041893;28;20057;-81
2021/08/18 08:01:42;;;;;;;;;;;;;;;-142.75;69.28;76410.84;5052585;28;20022;-82
2021/08/18 08:04:08;;;;;;;9.23;5.63;;;;;;;-142.75;67.84;76404.94;5051207;28;19977;-80
2021/08/18 08:06:33;;;;;;;9.30;5.38;;;;;;;-142.75;67.72;76402.97;4985769;28;20164;-80
2021/08/18 08:08:58;;;;;;;7.50;5.47;;;;;;;-142.75;67.39;76408.88;5053360;28;20032;-81
2021/08/18 08:11:24;;;;;;;11.13;5.82;;;;;;;-142.75;67.32;76412.81;4985385;28;20049;-80
2021/08/18 08:13:49;;;;;;;11.35;5.57;;;;;;;-142.75;67.84;76401.00;4972724;28;20038;-80
2021/08/18 08:16:14;;;;;;;;;;;;;;;-142.75;68.18;76393.13;5034261;28;20030;-81
2021/08/18 08:18:40;;;;;;;8.23;5.25;;;;;;;-142.75;68.39;76401.00;5040660;28;19917;-80
2021/08/18 08:21:05;;;;;;;9.73;5.22;;;;;;;-142.75;68.35;76397.06;4979703;28;20084;-80
2021/08/18 08:23:30;;;;;;;8.60;5.80;;;;;;;-142.75;68.03;76406.91;5040813;28;20430;-79
2021/08/18 08:25:55;;;;;;;9.70;5.53;;;;;;;-142.75;67.81;76412.81;4985444;28;20476;-79
2021/08/18 08:28:21;;;;;;;10.55;5.63;;;;;;;-142.75;68.41;76418.72;4975565;28;20030;-80
2021/08/18 08:30:49;;;;;;;7.55;5.35;;;;;;;-142.75;68.40;76424.63;4982917;28;20563;-81
2021/08/18 08:33:14;;;;;;;10.15;5.90;;;;;;;-142.75;68.29;76426.59;4982920;28;20115;-79
2021/08/18 08:35:39;;;;;;;9.13;5.43;;;;;;;-142.75;68.35;76432.50;5048436;28;20025;-81
2021/08/18 08:38:05;;;;;;;10.57;6.15;;;;;;;-142.75;68.92;76456.13;4974526;28;20027;-79
2021/08/18 08:40:30;;;;;;;12.32;6.22;;;;;;;-142.75;69.27;76473.84;4980195;28;20026;-79
2021/08/18 08:42:56;;;;;;;10.32;6.00;;;;;;;-142.75;69.74;76477.78;5044810;28;20056;-81
2021/08/18 08:45:22;;;;;;;16.60;6.57;;;;;;;-142.75;70.30;76489.59;4972849;28;20438;-78
2021/08/18 08:47:49;;;;;;;9.85;5.65;;;;;;;-142.75;69.84;76483.69;5038961;28;20022;-81
2021/08/18 08:50:15;;;;;;;8.25;5.55;;;;;;;-142.75;70.83;76483.69;5061498;28;20026;-80
2021/08/18 08:52:40;;;;;;;8.63;6.07;;;;;;;-142.75;70.98;76473.84;5044085;28;20022;-82
2021/08/18 08:55:07;;;;;;;8.15;5.43;;;;;;;-142.75;71.09;76475.81;5043762;28;20058;-80
2021/08/18 08:57:49;;;;;;;8.82;6.50;;;;;;;-142.75;71.35;76467.94;5044616;28;20034;-80
2021/08/18 09:00:14;;;;;;;10.73;6.70;;;;;;;-142.75;71.17;76471.88;4982544;28;20504;-82
2021/08/18 09:02:40;;;;;;;12.02;7.00;;;;;;;-142.75;71.42;76469.91;5045758;28;20033;-81
2021/08/18 09:05:05;;;;;;;14.60;6.85;;;;;;;-142.75;71.35;76456.13;5039361;28;20578;-80
2021/08/18 09:07:30;;;;;;;9.95;6.93;;;;;;;-142.75;71.15;76452.19;5041677;28;20458;-81
2021/08/18 09:09:57;;;;;;;11.98;7.03;;;;;;;-142.75;71.17;76452.19;4976979;28;20043;-80
2021/08/18 09:12:34;;;;;;;12.90;7.75;;;;;;;-142.75;70.73;76448.25;5058468;28;20017;-82
2021/08/18 09:15:12;;;;;;;13.25;7.88;;;;;;;-142.75;70.87;76440.38;4979016;28;20034;-83
2021/08/18 09:17:37;;;;;;;10.90;7.38;;;;;;;-142.75;70.92;76436.44;4981089;28;20027;-79
2021/08/18 09:20:07;;;;;;;13.38;9.00;;;;;;;-142.75;71.21;76424.63;4975970;28;20045;-79
2021/08/18 09:22:38;;;;;;;15.18;8.82;;;;;;;-142.75;70.24;76416.75;4976175;28;20030;-80
2021/08/18 09:25:24;;;;;;;16.63;9.20;;;;;;;-142.75;67.67;76406.91;5042530;28;20027;-80
2021/08/18 09:27:59;;;;;;;17.90;8.40;;;;;;;-142.75;66.30;76393.13;4969898;28;20039;-79
2021/08/18 09:30:31;;;;;;;13.20;7.63;;;;;;;-142.75;66.33;76393.13;5051868;28;20031;-79
2021/08/18 09:32:59;;;;;;;15.43;7.75;;;;;;;-142.75;67.09;76379.34;4970612;28;20026;-78
2021/08/18 09:35:27;;;;;;;12.55;7.70;;;;;;;-142.75;65.53;76379.34;4969538;28;20034;-80
2021/08/18 09:37:55;;;;;;;10.32;7.07;;;;;;;-142.75;66.22;76377.38;4969014;28;20059;-80
2021/08/18 09:40:25;;;;;;;13.13;8.15;;;;;;;-142.75;66.76;76381.31;5044751;28;20858;-80
2021/08/18 09:42:51;;;;;;;12.43;7.82;;;;;;;-142.75;66.82;76385.25;4971172;28;20030;-80
2021/08/18 09:45:20;;;;;;;15.93;7.70;;;;;;;-142.75;66.43;76371.47;4975315;28;20388;-80
2021/08/18 09:48:18;;;;;;;12.43;6.68;;;;;;;-142.75;66.08;76332.13;5040022;28;20042;-79
2021/08/18 09:51:08;;;;;;;11.07;7.22;;;;;;;-142.75;64.78;76286.84;4984136;28;20031;-80
2021/08/18 09:53:39;;;;;;;15.93;6.97;;;;;;;-142.75;63.79;76245.50;4975519;28;20038;-80
2021/08/18 09:56:08;;;;;;;12.05;6.38;;;;;;;-142.75;63.23;76231.72;4973695;28;20030;-79
2021/08/18 09:58:34;;;;;;;12.65;6.65;;;;;;;-142.75;61.78;76231.72;4975237;28;20034;-81
2021/08/18 10:01:03;;;;;;;10.85;6.07;;;;;;;-142.75;62.40;76231.72;5056093;28;20060;-80
2021/08/18 10:03:30;;;;;;;8.70;5.78;;;;;;;-142.75;61.35;76237.63;4975128;28;20038;-80
2021/08/18 10:05:57;;;;;;;9.38;6.00;;;;;;;-142.75;62.20;76223.84;4973139;28;20053;-81
2021/08/18 10:08:23;;;;;;;8.10;4.80;;;;;;;-142.75;61.78;76204.16;4979740;28;20031;-79
2021/08/18 10:10:48;;;;;;;10.88;5.38;;;;;;;-142.75;60.69;76188.44;4982727;28;20029;-79
2021/08/18 10:13:15;;;;;;;10.13;4.93;;;;;;;-142.75;60.05;76172.69;5054336;28;21721;-79
2021/08/18 10:15:41;;;;;;;14.48;5.03;;;;;;;-142.75;60.00;76178.59;5048797;28;20031;-78
2021/08/18 10:18:08;;;;;;;8.27;4.70;;;;;;;-142.75;60.13;76192.38;4980716;28;20075;-78
2021/08/18 10:20:35;;;;;;;8.15;4.13;;;;;;;-142.75;59.45;76204.16;4983274;28;20117;-78
2021/08/18 10:23:10;;;;;;;6.72;4.22;;;;;;;-142.75;59.02;76243.53;5053449;28;20459;-79
2021/08/18 10:25:47;;;;;;;9.77;3.88;;;;;;;-142.75;59.54;76267.16;5045620;28;20514;-79
2021/08/18 10:28:16;;;;;;;9.52;4.13;;;;;;;-142.75;59.50;76273.06;4979331;28;20062;-80
2021/08/18 10:30:54;;;;;;;10.98;4.45;;;;;;;-142.75;59.77;76259.28;4990613;28;20030;-79
2021/08/18 10:33:53;;;;;;;8.07;4.28;;;;;;;-142.75;60.48;76245.50;5045169;28;20052;-79
2021/08/18 10:36:43;;;;;;;8.30;4.22;;;;;;;-142.75;58.47;76215.97;4975251;28;20023;-78
2021/08/18 10:39:18;;;;;;;9.05;4.43;;;;;;;-142.75;59.47;76188.44;5060086;28;20041;-79
2021/08/18 10:42:02;;;;;;;11.68;4.18;;;;;;;-142.75;58.77;76160.88;5043266;28;20399;-80
2021/08/18 10:44:48;;;;;;;6.20;4.53;;;;;;;-142.75;59.65;76139.22;5051875;28;20039;-78
2021/08/18 10:47:26;;;;;;;7.85;4.10;;;;;;;-142.75;58.23;76099.84;4980149;28;20035;-79
2021/08/18 10:49:58;;;;;;;8.52;4.15;;;;;;;-142.75;57.67;76050.66;4980040;28;20058;-78
2021/08/18 10:52:30;;;;;;;5.35;3.42;;;;;;;-142.75;56.70;75932.56;5041066;28;20022;-78
2021/08/18 10:55:01;;;;;;;5.82;3.42;;;;;;;-142.75;50.88;75857.78;4979759;28;20034;-78
2021/08/18 10:57:40;;;;;;;10.35;3.30;;;;;;;-142.75;51.93;75830.22;5048481;28;20495;-79
2021/08/18 11:00:10;;;;;;;8.00;3.20;;;;;;;-142.75;51.02;75845.97;5063985;28;20024;-78
2021/08/18 11:02:49;;;;;;;9.02;3.72;;;;;;;-142.75;50.87;75853.84;4973630;28;20037;-78
2021/08/18 11:05:16;;;;;;;6.18;3.55;;;;;;;-142.75;52.00;75842.03;4977333;28;20107;-78
2021/08/18 11:08:11;;;;;;;5.88;2.83;;;;;;;-142.75;50.64;75826.28;4981598;28;20480;-78
2021/08/18 11:10:55;;;;;;;6.88;2.50;;;;;;;-142.75;47.93;75879.41;5059296;28;20018;-80
2021/08/18 11:13:39;;;;;;;7.07;2.60;;;;;;;-142.75;49.16;75981.75;5048324;28;20066;-79
2021/08/18 11:16:13;;;;;;;11.88;3.28;;;;;;;-142.75;50.74;76027.03;4976687;28;20489;-79
2021/08/18 11:18:48;;;;;;;4.60;2.80;;;;;;;-142.75;51.37;76027.03;5038407;28;20145;-78
2021/08/18 11:21:16;;;;;;;7.25;3.10;;;;;;;-142.75;51.87;76030.97;4972794;28;20058;-80
2021/08/18 11:23:48;;;;;;;7.43;2.92;;;;;;;-142.75;51.02;76023.09;5039257;28;20551;-79
2021/08/18 11:26:17;;;;;;;4.53;3.03;;;;;;;-142.75;50.21;76003.41;4987747;28;20037;-79
2021/08/18 11:28:52;;;;;;;4.38;2.47;;;;;;;-142.75;50.60;75954.22;5055602;28;20154;-79
2021/08/18 11:31:17;;;;;;;5.22;2.50;;;;;;;-142.75;50.67;75908.94;4983863;28;20045;-79
2021/08/18 11:33:42;;;;;;;4.75;2.75;;;;;;;-142.75;49.13;75877.44;4989224;28;20381;-79